Time;durP1;ratioP1;P1;durP2;ratioP2;P2;SDS_P1;SDS_P2;PMS_P1;PMS_P2;Temp;Humidity;BMP_temperature;BMP_pressure;BME280_temperature;BME280_humidity;BME280_pressure;Samples;Min_cycle;Max_cycle;Signal;HPM_P1;HPM_P2
2022/09/29 00:01:02;;;;;;;;;;;;;;;;;;5043041;28;1412;-73
2022/09/29 00:03:28;;;;;;;;;;;;;;;;;;5042724;28;1209;-74
2022/09/29 00:05:54;;;;;;;;;;;;;;;;;;5051210;28;869;-73
2022/09/29 00:08:21;;;;;;;;;;;;;;;;;;5037141;28;1988;-74
2022/09/29 00:10:47;;;;;;;;;;;;;;;;;;5046626;28;1131;-74
2022/09/29 00:13:15;;;;;;;;;;;;;;;;;;5051048;28;1067;-74
2022/09/29 00:15:41;;;;;;;;;;;;;;;;;;5049753;28;1116;-74
2022/09/29 00:18:08;;;;;;;;;;;;;;;;;;5051106;28;1063;-74
2022/09/29 00:20:34;;;;;;;;;;;;;;;;;;5038900;28;1464;-73
2022/09/29 00:23:01;;;;;;;;;;;;;;;;;;5047975;28;1201;-73
2022/09/29 00:25:27;;;;;;;;;;;;;;;;;;5051224;28;839;-74
2022/09/29 00:27:53;;;;;;;;;;;;;;;;;;5051085;28;1973;-74
2022/09/29 00:30:21;;;;;;;;;;;;;;;;;;5046364;28;1420;-73
2022/09/29 00:32:47;;;;;;;;;;;;;;;;;;5038138;28;1487;-74
2022/09/29 00:35:16;;;;;;;;;;;;;;;;;;5041765;28;1297;-73
2022/09/29 00:37:43;;;;;;;;;;;;;;;;;;5051004;28;1013;-73
2022/09/29 00:40:10;;;;;;;;;;;;;;;;;;5050854;28;1403;-74
2022/09/29 00:42:36;;;;;;;;;;;;;;;;;;5040062;28;1446;-73
2022/09/29 00:45:05;;;;;;;;;;;;;;;;;;5041391;28;1391;-73
2022/09/29 00:47:33;;;;;;;;;;;;;;;;;;5049798;28;905;-73
2022/09/29 00:49:59;;;;;;;;;;;;;;;;;;5050492;28;1983;-73
2022/09/29 00:52:26;;;;;;;;;;;;;;;;;;5041803;28;1455;-74
2022/09/29 00:54:53;;;;;;;;;;;;;;;;;;5042368;28;1126;-73
2022/09/29 00:57:20;;;;;;;;;;;;;;;;;;5050766;28;1021;-74
2022/09/29 00:59:47;;;;;;;;;;;;;;;;;;5050403;28;1392;-73
2022/09/29 01:02:13;;;;;;;;;;;;;;;;;;5050449;28;1139;-74
2022/09/29 01:04:40;;;;;;;;;;;;;;;;;;5047410;28;1404;-74
2022/09/29 01:07:07;;;;;;;;;;;;;;;;;;5046070;28;1334;-74
2022/09/29 01:09:34;;;;;;;;;;;;;;;;;;5054458;28;1910;-73
2022/09/29 01:12:00;;;;;;;;;;;;;;;;;;5050400;28;1423;-73
2022/09/29 01:14:26;;;;;;;;;;;;;;;;;;5046016;28;1385;-73
2022/09/29 01:16:53;;;;;;;;;;;;;;;;;;5053030;28;1168;-73
2022/09/29 01:19:21;;;;;;;;;;;;;;;;;;5054188;28;1405;-73
2022/09/29 01:21:52;;;;;;;;;;;;;;;;;;5049974;28;1384;-73
2022/09/29 01:24:37;;;;;;;;;;;;;;;;;;5045815;28;1185;-73
2022/09/29 01:27:08;;;;;;;;;;;;;;;;;;5054199;28;1105;-74
2022/09/29 01:29:53;;;;;;;;;;;;;;;;;;5053877;28;1907;-73
2022/09/29 01:32:22;;;;;;;;;;;;;;;;;;5045347;28;1404;-73
2022/09/29 01:34:50;;;;;;;;;;;;;;;;;;5045576;28;1209;-73
2022/09/29 01:37:16;;;;;;;;;;;;;;;;;;5042890;28;1409;-74
2022/09/29 01:39:43;;;;;;;;;;;;;;;;;;5047238;28;1411;-74
2022/09/29 01:42:11;;;;;;;;;;;;;;;;;;5045752;28;1479;-73
2022/09/29 01:44:39;;;;;;;;;;;;;;;;;;5045321;28;1145;-74
2022/09/29 01:47:05;;;;;;;;;;;;;;;;;;5054058;28;953;-73
2022/09/29 01:49:34;;;;;;;;;;;;;;;;;;5052154;28;1969;-73
2022/09/29 01:52:00;;;;;;;;;;;;;;;;;;5042838;28;1400;-73
2022/09/29 01:54:28;;;;;;;;;;;;;;;;;;5053788;28;1048;-73
2022/09/29 01:56:55;;;;;;;;;;;;;;;;;;5053595;28;1115;-73
2022/09/29 01:59:22;;;;;;;;;;;;;;;;;;5062750;22;3651;-73
2022/09/29 02:01:48;;;;;;;;;;;;;;;;;;5060926;28;1151;-72
2022/09/29 02:04:16;;;;;;;;;;;;;;;;;;5053542;28;1086;-71
2022/09/29 02:06:45;;;;;;;;;;;;;;;;;;5053557;28;1441;-72
2022/09/29 02:09:12;;;;;;;;;;;;;;;;;;5063932;28;1898;-72
2022/09/29 02:11:38;;;;;;;;;;;;;;;;;;5089125;28;1119;-72
2022/09/29 02:14:05;;;;;;;;;;;;;;;;;;5072381;28;1328;-72
2022/09/29 02:16:32;;;;;;;;;;;;;;;;;;5069431;28;1451;-73
2022/09/29 02:19:00;;;;;;;;;;;;;;;;;;5070359;28;1522;-71
2022/09/29 02:21:26;;;;;;;;;;;;;;;;;;5073042;28;1043;-71
2022/09/29 02:23:54;;;;;;;;;;;;;;;;;;5073170;28;1102;-71
2022/09/29 02:26:20;;;;;;;;;;;;;;;;;;5068582;28;1425;-71
2022/09/29 02:28:46;;;;;;;;;;;;;;;;;;5060361;28;1973;-71
2022/09/29 02:31:12;;;;;;;;;;;;;;;;;;5061430;28;1214;-72
2022/09/29 02:33:38;;;;;;;;;;;;;;;;;;5052709;28;926;-71
2022/09/29 02:36:07;;;;;;;;;;;;;;;;;;5056183;28;1479;-72
2022/09/29 02:38:36;;;;;;;;;;;;;;;;;;5058150;28;1407;-71
2022/09/29 02:41:06;;;;;;;;;;;;;;;;;;5071408;28;1106;-72
2022/09/29 02:43:37;;;;;;;;;;;;;;;;;;5072734;28;1059;-72
2022/09/29 02:46:07;;;;;;;;;;;;;;;;;;5070381;28;1406;-71
2022/09/29 02:48:38;;;;;;;;;;;;;;;;;;5058213;28;1905;-70
2022/09/29 02:51:10;;;;;;;;;;;;;;;;;;5072683;28;1111;-71
2022/09/29 02:53:40;;;;;;;;;;;;;;;;;;5088094;28;1171;-71
2022/09/29 02:56:09;;;;;;;;;;;;;;;;;;5072619;28;688;-71
2022/09/29 02:58:37;;;;;;;;;;;;;;;;;;5066434;28;1475;-72
2022/09/29 03:01:04;;;;;;;;;;;;;;;;;;5053373;28;1220;-72
2022/09/29 03:03:30;;;;;;;;;;;;;;;;;;5052402;28;921;-72
2022/09/29 03:05:56;;;;;;;;;;;;;;;;;;5052189;28;1103;-71
2022/09/29 03:08:22;;;;;;;;;;;;;;;;;;5052620;28;850;-72
2022/09/29 03:10:49;;;;;;;;;;;;;;;;;;5058814;28;1977;-72
2022/09/29 03:13:16;;;;;;;;;;;;;;;;;;5052545;28;1149;-72
2022/09/29 03:15:43;;;;;;;;;;;;;;;;;;5052269;28;1177;-73
2022/09/29 03:18:09;;;;;;;;;;;;;;;;;;5067732;28;1385;-72
2022/09/29 03:20:35;;;;;;;;;;;;;;;;;;5058423;28;1333;-70
2022/09/29 03:23:02;;;;;;;;;;;;;;;;;;5069374;28;1206;-71
2022/09/29 03:25:28;;;;;;;;;;;;;;;;;;5087393;28;1123;-72
2022/09/29 03:27:54;;;;;;;;;;;;;;;;;;5070711;28;1302;-72
2022/09/29 03:30:22;;;;;;;;;;;;;;;;;;5079591;28;1910;-71
2022/09/29 03:32:48;;;;;;;;;;;;;;;;;;5063187;28;1212;-71
2022/09/29 03:35:15;;;;;;;;;;;;;;;;;;5071786;28;1075;-71
2022/09/29 03:37:41;;;;;;;;;;;;;;;;;;5071964;28;1114;-72
2022/09/29 03:40:08;;;;;;;;;;;;;;;;;;5059638;28;1495;-70
2022/09/29 03:42:34;;;;;;;;;;;;;;;;;;5065240;28;1134;-72
2022/09/29 03:45:00;;;;;;;;;;;;;;;;;;5071729;28;868;-71
2022/09/29 03:47:27;;;;;;;;;;;;;;;;;;5069306;28;1552;-71
2022/09/29 03:49:54;;;;;;;;;;;;;;;;;;5055232;28;1921;-72
2022/09/29 03:52:20;;;;;;;;;;;;;;;;;;5060131;28;1411;-71
2022/09/29 03:54:46;;;;;;;;;;;;;;;;;;5060084;28;1131;-71
2022/09/29 03:57:12;;;;;;;;;;;;;;;;;;5051728;28;1083;-72
2022/09/29 03:59:38;;;;;;;;;;;;;;;;;;5051493;28;1310;-71
2022/09/29 04:02:05;;;;;;;;;;;;;;;;;;5055939;28;1445;-71
2022/09/29 04:04:32;;;;;;;;;;;;;;;;;;5056490;28;1126;-71
2022/09/29 04:06:58;;;;;;;;;;;;;;;;;;5071456;28;1114;-71
2022/09/29 04:09:24;;;;;;;;;;;;;;;;;;5071441;28;1909;-71
2022/09/29 04:11:51;;;;;;;;;;;;;;;;;;5071159;28;913;-71
2022/09/29 04:14:17;;;;;;;;;;;;;;;;;;5067041;28;1395;-71
2022/09/29 04:16:43;;;;;;;;;;;;;;;;;;5056832;28;1511;-71
2022/09/29 04:19:09;;;;;;;;;;;;;;;;;;5051324;28;1420;-71
2022/09/29 04:21:36;;;;;;;;;;;;;;;;;;5052083;28;1391;-71
2022/09/29 04:24:03;;;;;;;;;;;;;;;;;;5054424;28;1070;-71
2022/09/29 04:26:29;;;;;;;;;;;;;;;;;;5087085;28;1404;-71
2022/09/29 04:28:55;;;;;;;;;;;;;;;;;;5086703;28;1316;-71
2022/09/29 04:31:21;;;;;;;;;;;;;;;;;;5066275;28;1910;-71
2022/09/29 04:33:47;;;;;;;;;;;;;;;;;;5063073;28;1134;-71
2022/09/29 04:36:14;;;;;;;;;;;;;;;;;;5062024;28;1403;-71
2022/09/29 04:38:41;;;;;;;;;;;;;;;;;;5058890;28;1322;-71
2022/09/29 04:41:07;;;;;;;;;;;;;;;;;;5064871;28;1550;-72
2022/09/29 04:43:33;;;;;;;;;;;;;;;;;;5065390;28;1306;-73
2022/09/29 04:46:03;;;;;;;;;;;;;;;;;;5074921;28;1055;-73
2022/09/29 04:48:30;;;;;;;;;;;;;;;;;;5075252;28;877;-70
2022/09/29 04:50:56;;;;;;;;;;;;;;;;;;5068645;28;1906;-71
2022/09/29 04:53:22;;;;;;;;;;;;;;;;;;5070957;28;1409;-72
2022/09/29 04:55:49;;;;;;;;;;;;;;;;;;5062799;28;1352;-73
2022/09/29 04:58:16;;;;;;;;;;;;;;;;;;5066609;28;1158;-72
2022/09/29 05:00:42;;;;;;;;;;;;;;;;;;5065686;28;1616;-69
2022/09/29 05:03:08;;;;;;;;;;;;;;;;;;5068790;28;1411;-73
2022/09/29 05:05:34;;;;;;;;;;;;;;;;;;5079040;28;1411;-72
2022/09/29 05:08:03;;;;;;;;;;;;;;;;;;5069662;28;1429;-72
2022/09/29 05:10:29;;;;;;;;;;;;;;;;;;5055670;28;1975;-73
2022/09/29 05:12:56;;;;;;;;;;;;;;;;;;5063275;28;1465;-73
2022/09/29 05:15:23;;;;;;;;;;;;;;;;;;5059086;28;1382;-73
2022/09/29 05:17:49;;;;;;;;;;;;;;;;;;5059026;28;1377;-73
2022/09/29 05:20:16;;;;;;;;;;;;;;;;;;5066902;28;1494;-72
2022/09/29 05:22:42;;;;;;;;;;;;;;;;;;5060838;28;1313;-74
2022/09/29 05:25:08;;;;;;;;;;;;;;;;;;5070816;28;1453;-72
2022/09/29 05:27:35;;;;;;;;;;;;;;;;;;5065169;28;1476;-72
2022/09/29 05:30:03;;;;;;;;;;;;;;;;;;5068226;28;1918;-73
2022/09/29 05:32:29;;;;;;;;;;;;;;;;;;5055380;28;1387;-72
2022/09/29 05:34:56;;;;;;;;;;;;;;;;;;5063205;28;1212;-72
2022/09/29 05:37:22;;;;;;;;;;;;;;;;;;5064388;28;1327;-72
2022/09/29 05:39:48;;;;;;;;;;;;;;;;;;5073003;28;1427;-72
2022/09/29 05:42:14;;;;;;;;;;;;;;;;;;5072515;28;1190;-71
2022/09/29 05:44:40;;;;;;;;;;;;;;;;;;5074211;28;936;-72
2022/09/29 05:47:08;;;;;;;;;;;;;;;;;;5073913;28;1075;-71
2022/09/29 05:49:35;;;;;;;;;;;;;;;;;;5073505;28;1980;-73
2022/09/29 05:52:01;;;;;;;;;;;;;;;;;;5073336;28;1075;-71
2022/09/29 05:54:28;;;;;;;;;;;;;;;;;;5074113;28;766;-72
2022/09/29 05:56:54;;;;;;;;;;;;;;;;;;5073806;28;1052;-72
2022/09/29 05:59:21;;;;;;;;;;;;;;;;;;5072330;28;1289;-71
2022/09/29 06:01:47;;;;;;;;;;;;;;;;;;5073653;28;1071;-72
2022/09/29 06:04:16;;;;;;;;;;;;;;;;;;5072377;28;1153;-71
2022/09/29 06:06:42;;;;;;;;;;;;;;;;;;5073843;28;1016;-73
2022/09/29 06:09:08;;;;;;;;;;;;;;;;;;5073262;28;1497;-73
2022/09/29 06:11:34;;;;;;;;;;;;;;;;;;5073346;28;1949;-73
2022/09/29 06:14:01;;;;;;;;;;;;;;;;;;5070166;28;1171;-73
2022/09/29 06:16:28;;;;;;;;;;;;;;;;;;5058803;28;1453;-73
2022/09/29 06:18:54;;;;;;;;;;;;;;;;;;5051958;28;1359;-72
2022/09/29 06:21:22;;;;;;;;;;;;;;;;;;5053811;28;1510;-70
2022/09/29 06:23:49;;;;;;;;;;;;;;;;;;5069448;28;1693;-73
2022/09/29 06:26:16;;;;;;;;;;;;;;;;;;5044004;28;1161;-74
2022/09/29 06:28:42;;;;;;;;;;;;;;;;;;5084061;28;1482;-72
2022/09/29 06:31:10;;;;;;;;;;;;;;;;;;5061553;28;1922;-73
2022/09/29 06:33:37;;;;;;;;;;;;;;;;;;5058678;28;1205;-73
2022/09/29 06:38:49;;;;;;;;;;;;;;;;;;5067969;28;1431;-72
2022/09/29 06:41:15;;;;;;;;;;;;;;;;;;5061554;28;1591;-72
2022/09/29 06:43:41;;;;;;;;;;;;;;;;;;5051779;28;1352;-72
2022/09/29 06:46:07;;;;;;;;;;;;;;;;;;5051673;28;1658;-72
2022/09/29 06:48:34;;;;;;;;;;;;;;;;;;5067420;28;1486;-71
2022/09/29 06:51:00;;;;;;;;;;;;;;;;;;5059789;28;1918;-72
2022/09/29 06:53:26;;;;;;;;;;;;;;;;;;5063294;28;1725;-72
2022/09/29 06:55:55;;;;;;;;;;;;;;;;;;5066151;28;1358;-71
2022/09/29 06:58:21;;;;;;;;;;;;;;;;;;5058431;28;1123;-73
2022/09/29 07:00:47;;;;;;;;;;;;;;;;;;5065469;28;1586;-72
2022/09/29 07:03:14;;;;;;;;;;;;;;;;;;5064751;28;1469;-73
2022/09/29 07:05:40;;;;;;;;;;;;;;;;;;5050042;28;1143;-73
2022/09/29 07:08:06;;;;;;;;;;;;;;;;;;5062829;28;1453;-70
2022/09/29 07:10:32;;;;;;;;;;;;;;;;;;5056154;28;1969;-71
2022/09/29 07:13:00;;;;;;;;;;;;;;;;;;5048227;28;2350;-73
2022/09/29 07:15:30;;;;;;;;;;;;;;;;;;5054077;28;1554;-72
2022/09/29 07:17:56;;;;;;;;;;;;;;;;;;5056632;28;1166;-71
2022/09/29 07:20:22;;;;;;;;;;;;;;;;;;5064460;28;1484;-71
2022/09/29 07:22:49;;;;;;;;;;;;;;;;;;5052805;28;1401;-72
2022/09/29 07:25:15;;;;;;;;;;;;;;;;;;5053223;28;1252;-72
2022/09/29 07:27:41;;;;;;;;;;;;;;;;;;5067262;28;1084;-71
2022/09/29 07:30:09;;;;;;;;;;;;;;;;;;5049864;28;1971;-71
2022/09/29 07:32:36;;;;;;;;;;;;;;;;;;5055492;28;1460;-72
2022/09/29 07:35:02;;;;;;;;;;;;;;;;;;5056722;28;1385;-72
2022/09/29 07:37:29;;;;;;;;;;;;;;;;;;5060337;28;1401;-73
2022/09/29 07:39:55;;;;;;;;;;;;;;;;;;5054887;28;1521;-72
2022/09/29 07:42:21;;;;;;;;;;;;;;;;;;5064187;28;1389;-72
2022/09/29 07:44:54;;;;;;;;;;;;;;;;;;5054475;28;1413;-72
2022/09/29 07:47:21;;;;;;;;;;;;;;;;;;5066239;28;1404;-72
2022/09/29 07:49:48;;;;;;;;;;;;;;;;;;5065443;28;1552;-73
2022/09/29 07:52:14;;;;;;;;;;;;;;;;;;5059285;28;2004;-73
2022/09/29 07:54:40;;;;;;;;;;;;;;;;;;5051012;28;1072;-72
2022/09/29 07:57:06;;;;;;;;;;;;;;;;;;5051579;28;1476;-72
2022/09/29 07:59:32;;;;;;;;;;;;;;;;;;5075622;22;3517;-73
2022/09/29 08:01:59;;;;;;;;;;;;;;;;;;5028265;28;2179;-75
2022/09/29 08:04:26;;;;;;;;;;;;;;;;;;5026407;28;1404;-75
2022/09/29 08:06:52;;;;;;;;;;;;;;;;;;5027305;28;1210;-75
2022/09/29 08:09:18;;;;;;;;;;;;;;;;;;5023622;28;1510;-75
2022/09/29 08:11:45;;;;;;;;;;;;;;;;;;5023193;28;1914;-76
2022/09/29 08:14:11;;;;;;;;;;;;;;;;;;5030364;28;1428;-76
2022/09/29 08:16:37;;;;;;;;;;;;;;;;;;5030946;28;1068;-76
2022/09/29 08:19:04;;;;;;;;;;;;;;;;;;5030922;28;795;-77
2022/09/29 08:21:35;;;;;;;;;;;;;;;;;;5029603;28;1573;-76
2022/09/29 08:24:03;;;;;;;;;;;;;;;;;;5030892;28;1182;-76
2022/09/29 08:26:30;;;;;;;;;;;;;;;;;;5029641;28;1516;-76
2022/09/29 08:28:56;;;;;;;;;;;;;;;;;;5026743;28;1468;-76
2022/09/29 08:31:22;;;;;;;;;;;;;;;;;;5030707;28;1918;-76
2022/09/29 08:33:50;;;;;;;;;;;;;;;;;;5030724;28;1108;-76
2022/09/29 08:36:16;;;;;;;;;;;;;;;;;;5030916;28;902;-76
2022/09/29 08:38:44;;;;;;;;;;;;;;;;;;5029494;28;1497;-75
2022/09/29 08:41:15;;;;;;;;;;;;;;;;;;5030634;28;1478;-76
2022/09/29 08:43:41;;;;;;;;;;;;;;;;;;5030950;28;1056;-77
2022/09/29 08:46:08;;;;;;;;;;;;;;;;;;5031067;28;1116;-76
2022/09/29 08:48:36;;;;;;;;;;;;;;;;;;5030283;28;1459;-76
2022/09/29 08:51:03;;;;;;;;;;;;;;;;;;5031043;28;1887;-76
2022/09/29 08:53:29;;;;;;;;;;;;;;;;;;5031159;28;1072;-75
2022/09/29 08:55:58;;;;;;;;;;;;;;;;;;5031365;28;759;-76
2022/09/29 08:58:24;;;;;;;;;;;;;;;;;;5029100;28;1494;-75
2022/09/29 09:01:00;;;;;;;;;;;;;;;;;;5029964;28;1417;-77
2022/09/29 09:03:33;;;;;;;;;;;;;;;;;;5030592;28;1459;-77
2022/09/29 09:06:06;;;;;;;;;;;;;;;;;;5030600;28;1222;-75
2022/09/29 09:08:37;;;;;;;;;;;;;;;;;;5027173;28;1483;-72
2022/09/29 09:11:06;;;;;;;;;;;;;;;;;;5026971;28;1926;-76
2022/09/29 09:13:35;;;;;;;;;;;;;;;;;;5029238;28;1896;-75
2022/09/29 09:16:04;;;;;;;;;;;;;;;;;;5029331;28;1389;-76
2022/09/29 09:18:34;;;;;;;;;;;;;;;;;;5027320;28;1614;-76
2022/09/29 09:21:01;;;;;;;;;;;;;;;;;;5030157;28;1482;-76
2022/09/29 09:23:29;;;;;;;;;;;;;;;;;;5031474;28;1400;-78
2022/09/29 09:25:55;;;;;;;;;;;;;;;;;;5034584;28;933;-78
2022/09/29 09:28:25;;;;;;;;;;;;;;;;;;5033407;28;1187;-78
2022/09/29 09:30:53;;;;;;;;;;;;;;;;;;5035812;28;1918;-78
2022/09/29 09:33:21;;;;;;;;;;;;;;;;;;5023200;28;1001;-77
2022/09/29 09:35:48;;;;;;;;;;;;;;;;;;5028945;28;1473;-77
2022/09/29 09:38:15;;;;;;;;;;;;;;;;;;5034315;28;1143;-76
2022/09/29 09:40:42;;;;;;;;;;;;;;;;;;5034387;28;1300;-78
2022/09/29 09:43:10;;;;;;;;;;;;;;;;;;5036483;28;1240;-77
2022/09/29 09:45:39;;;;;;;;;;;;;;;;;;5034607;28;1112;-76
2022/09/29 09:48:07;;;;;;;;;;;;;;;;;;5033511;28;1412;-77
2022/09/29 09:50:33;;;;;;;;;;;;;;;;;;5033230;28;1500;-74
2022/09/29 09:53:01;;;;;;;;;;;;;;;;;;5031521;28;1965;-76
2022/09/29 09:55:29;;;;;;;;;;;;;;;;;;5028110;28;1380;-74
2022/09/29 09:58:10;;;;;;;;;;;;;;;;;;5028440;28;1391;-75
2022/09/29 10:00:38;;;;;;;;;;;;;;;;;;5025859;28;1480;-77
2022/09/29 10:03:05;;;;;;;;;;;;;;;;;;5028860;28;1392;-76
2022/09/29 10:05:33;;;;;;;;;;;;;;;;;;5027164;28;1422;-76
2022/09/29 10:07:59;;;;;;;;;;;;;;;;;;5023379;28;1363;-76
2022/09/29 10:10:26;;;;;;;;;;;;;;;;;;5035897;28;1481;-76
2022/09/29 10:12:55;;;;;;;;;;;;;;;;;;5030848;28;1968;-76
2022/09/29 10:15:22;;;;;;;;;;;;;;;;;;5030559;28;1372;-76
2022/09/29 10:17:50;;;;;;;;;;;;;;;;;;5030807;28;1239;-77
2022/09/29 10:20:28;;;;;;;;;;;;;;;;;;5029038;28;1408;-77
2022/09/29 10:22:54;;;;;;;;;;;;;;;;;;5029461;28;1554;-76
2022/09/29 10:25:21;;;;;;;;;;;;;;;;;;5030120;28;1044;-77
2022/09/29 10:27:49;;;;;;;;;;;;;;;;;;5016148;28;1060;-76
2022/09/29 10:30:16;;;;;;;;;;;;;;;;;;5011831;28;1317;-77
2022/09/29 10:32:42;;;;;;;;;;;;;;;;;;5013051;28;1966;-77
2022/09/29 10:35:16;;;;;;;;;;;;;;;;;;5026248;28;1512;-77
2022/09/29 10:37:43;;;;;;;;;;;;;;;;;;5029177;28;1692;-75
2022/09/29 10:40:13;;;;;;;;;;;;;;;;;;5029971;28;1365;-76
2022/09/29 10:42:40;;;;;;;;;;;;;;;;;;5030267;28;783;-76
2022/09/29 10:45:10;;;;;;;;;;;;;;;;;;5028077;28;1467;-76
2022/09/29 10:47:37;;;;;;;;;;;;;;;;;;5028370;28;1447;-75
2022/09/29 10:50:07;;;;;;;;;;;;;;;;;;5028866;28;1463;-76
2022/09/29 10:52:35;;;;;;;;;;;;;;;;;;5028641;28;1934;-76
2022/09/29 10:55:02;;;;;;;;;;;;;;;;;;5029871;28;1353;-76
2022/09/29 10:57:29;;;;;;;;;;;;;;;;;;5027799;28;1660;-76
2022/09/29 10:59:56;;;;;;;;;;;;;;;;;;5028490;28;1496;-76
2022/09/29 11:02:23;;;;;;;;;;;;;;;;;;5029921;28;1527;-77
2022/09/29 11:04:50;;;;;;;;;;;;;;;;;;5030457;28;1060;-76
2022/09/29 11:07:16;;;;;;;;;;;;;;;;;;5030286;28;846;-76
2022/09/29 11:09:44;;;;;;;;;;;;;;;;;;5029923;28;1400;-75
2022/09/29 11:12:27;;;;;;;;;;;;;;;;;;5041912;28;1969;-76
2022/09/29 11:14:53;;;;;;;;;;;;;;;;;;5028618;28;1472;-76
2022/09/29 11:17:21;;;;;;;;;;;;;;;;;;5023106;28;1075;-75
2022/09/29 11:19:47;;;;;;;;;;;;;;;;;;5030121;28;1444;-76
2022/09/29 11:22:16;;;;;;;;;;;;;;;;;;5029767;28;1408;-76
2022/09/29 11:24:50;;;;;;;;;;;;;;;;;;5028325;28;1453;-76
2022/09/29 11:27:19;;;;;;;;;;;;;;;;;;5025718;28;1386;-76
2022/09/29 11:29:47;;;;;;;;;;;;;;;;;;5029670;28;1451;-76
2022/09/29 11:32:17;;;;;;;;;;;;;;;;;;5029642;28;1918;-76
2022/09/29 11:34:47;;;;;;;;;;;;;;;;;;5028999;28;1649;-76
2022/09/29 11:37:17;;;;;;;;;;;;;;;;;;5029583;28;1084;-76
2022/09/29 11:39:46;;;;;;;;;;;;;;;;;;5030028;28;1359;-75
2022/09/29 11:42:27;;;;;;;;;;;;;;;;;;5026167;28;1480;-76
2022/09/29 11:44:57;;;;;;;;;;;;;;;;;;5029355;28;1583;-76
2022/09/29 11:47:27;;;;;;;;;;;;;;;;;;5011425;28;889;-77
2022/09/29 11:50:09;;;;;;;;;;;;;;;;;;5011559;28;1330;-76
2022/09/29 11:52:42;;;;;;;;;;;;;;;;;;5010256;28;1918;-76
2022/09/29 11:55:17;;;;;;;;;;;;;;;;;;5044787;28;1477;-76
2022/09/29 11:57:47;;;;;;;;;;;;;;;;;;5032378;28;1427;-77
2022/09/29 12:00:14;;;;;;;;;;;;;;;;;;5029887;28;1518;-77
2022/09/29 12:02:47;;;;;;;;;;;;;;;;;;5027266;28;1454;-76
2022/09/29 12:05:16;;;;;;;;;;;;;;;;;;5031244;28;1186;-79
2022/09/29 12:07:44;;;;;;;;;;;;;;;;;;5027800;28;1441;-77
2022/09/29 12:10:34;;;;;;;;;;;;;;;;;;5031166;28;1405;-77
2022/09/29 12:13:03;;;;;;;;;;;;;;;;;;5010734;28;1998;-75
2022/09/29 12:15:31;;;;;;;;;;;;;;;;;;5030686;28;1471;-77
2022/09/29 12:17:59;;;;;;;;;;;;;;;;;;5027042;28;1471;-76
2022/09/29 12:20:26;;;;;;;;;;;;;;;;;;5021528;28;1495;-77
2022/09/29 12:22:53;;;;;;;;;;;;;;;;;;5030427;28;1554;-76
2022/09/29 12:25:21;;;;;;;;;;;;;;;;;;5030197;28;1412;-77
2022/09/29 12:27:47;;;;;;;;;;;;;;;;;;5024450;28;1450;-77
2022/09/29 12:30:17;;;;;;;;;;;;;;;;;;5029261;28;1434;-77
2022/09/29 12:32:44;;;;;;;;;;;;;;;;;;5030275;28;1983;-76
2022/09/29 12:35:12;;;;;;;;;;;;;;;;;;5030837;28;1397;-77
2022/09/29 12:37:39;;;;;;;;;;;;;;;;;;5029358;28;1523;-76
2022/09/29 12:40:06;;;;;;;;;;;;;;;;;;5030779;28;1416;-76
2022/09/29 12:42:37;;;;;;;;;;;;;;;;;;5030875;28;949;-76
2022/09/29 12:45:05;;;;;;;;;;;;;;;;;;5031354;28;831;-76
2022/09/29 12:47:41;;;;;;;;;;;;;;;;;;5028324;28;1409;-76
2022/09/29 12:50:09;;;;;;;;;;;;;;;;;;5029516;28;1453;-77
2022/09/29 12:52:38;;;;;;;;;;;;;;;;;;5030268;28;1910;-76
2022/09/29 12:55:05;;;;;;;;;;;;;;;;;;5030904;28;902;-77
2022/09/29 12:57:32;;;;;;;;;;;;;;;;;;5030176;28;1413;-76
2022/09/29 12:59:59;;;;;;;;;;;;;;;;;;5031538;28;1345;-76
2022/09/29 13:02:30;;;;;;;;;;;;;;;;;;5034836;28;1083;-77
2022/09/29 13:05:07;;;;;;;;;;;;;;;;;;5034915;28;864;-76
2022/09/29 13:07:38;;;;;;;;;;;;;;;;;;5024796;28;1467;-74
2022/09/29 13:10:20;;;;;;;;;;;;;;;;;;5047743;28;1415;-77
2022/09/29 13:12:54;;;;;;;;;;;;;;;;;;5030578;28;1981;-77
2022/09/29 13:15:38;;;;;;;;;;;;;;;;;;5032638;28;1455;-77
2022/09/29 13:18:18;;;;;;;;;;;;;;;;;;5033562;28;1306;-77
2022/09/29 13:20:54;;;;;;;;;;;;;;;;;;5033168;28;1440;-79
2022/09/29 13:23:36;;;;;;;;;;;;;;;;;;5033015;28;1514;-77
2022/09/29 13:26:06;;;;;;;;;;;;;;;;;;5033199;28;1231;-77
2022/09/29 13:28:33;;;;;;;;;;;;;;;;;;5049597;28;1136;-77
2022/09/29 13:31:00;;;;;;;;;;;;;;;;;;5032142;28;1514;-77
2022/09/29 13:33:27;;;;;;;;;;;;;;;;;;5034039;28;1994;-77
2022/09/29 13:35:54;;;;;;;;;;;;;;;;;;5034185;28;759;-77
2022/09/29 13:38:21;;;;;;;;;;;;;;;;;;5034078;28;984;-76
2022/09/29 13:41:06;;;;;;;;;;;;;;;;;;5033848;28;1433;-75
2022/09/29 13:43:39;;;;;;;;;;;;;;;;;;5013916;28;897;-77
2022/09/29 13:46:20;;;;;;;;;;;;;;;;;;5013084;28;1330;-77
2022/09/29 13:48:49;;;;;;;;;;;;;;;;;;5013601;28;1526;-77
2022/09/29 13:51:24;;;;;;;;;;;;;;;;;;5031547;28;1487;-74
2022/09/29 13:54:13;;;;;;;;;;;;;;;;;;5031531;28;1918;-77
2022/09/29 13:56:39;;;;;;;;;;;;;;;;;;5044652;28;1236;-77
2022/09/29 13:59:11;;;;;;;;;;;;;;;;;;5014218;28;1126;-77
2022/09/29 14:01:38;;;;;;;;;;;;;;;;;;5050076;22;2048;-76
2022/09/29 14:04:23;;;;;;;;;;;;;;;;;;5069884;28;1459;-76
2022/09/29 14:06:50;;;;;;;;;;;;;;;;;;5054762;28;1502;-77
2022/09/29 14:09:17;;;;;;;;;;;;;;;;;;5050685;28;1369;-77
2022/09/29 14:11:44;;;;;;;;;;;;;;;;;;5051678;28;2297;-76
2022/09/29 14:14:14;;;;;;;;;;;;;;;;;;5058166;28;1926;-77
2022/09/29 14:16:53;;;;;;;;;;;;;;;;;;5059335;28;1591;-77
2022/09/29 14:19:23;;;;;;;;;;;;;;;;;;5063517;28;1409;-75
2022/09/29 14:21:53;;;;;;;;;;;;;;;;;;5061512;28;1511;-77
2022/09/29 14:24:39;;;;;;;;;;;;;;;;;;5065309;28;1397;-77
2022/09/29 14:27:17;;;;;;;;;;;;;;;;;;5059170;28;1122;-77
2022/09/29 14:29:44;;;;;;;;;;;;;;;;;;5054520;28;1472;-77
2022/09/29 14:32:11;;;;;;;;;;;;;;;;;;5052656;28;1409;-76
2022/09/29 14:34:39;;;;;;;;;;;;;;;;;;5070973;28;1982;-78
2022/09/29 14:37:06;;;;;;;;;;;;;;;;;;5067879;28;1429;-77
2022/09/29 14:39:32;;;;;;;;;;;;;;;;;;5058349;28;1118;-76
2022/09/29 14:41:59;;;;;;;;;;;;;;;;;;5050094;28;1396;-77
2022/09/29 14:44:26;;;;;;;;;;;;;;;;;;5049172;28;1164;-76
2022/09/29 14:52:49;;;;;;;;;;;;;;;;;;5064974;28;1997;-77
2022/09/29 14:55:17;;;;;;;;;;;;;;;;;;5070345;28;1094;-77
2022/09/29 14:57:57;;;;;;;;;;;;;;;;;;5066603;28;1412;-76
2022/09/29 15:00:24;;;;;;;;;;;;;;;;;;5054964;28;1668;-76
2022/09/29 15:02:51;;;;;;;;;;;;;;;;;;5070238;28;1401;-77
2022/09/29 15:05:24;;;;;;;;;;;;;;;;;;5071103;28;888;-77
2022/09/29 15:07:52;;;;;;;;;;;;;;;;;;5060004;28;1491;-76
2022/09/29 15:10:23;;;;;;;;;;;;;;;;;;5063513;28;1224;-77
2022/09/29 15:12:49;;;;;;;;;;;;;;;;;;5063745;28;1913;-77
2022/09/29 15:15:34;;;;;;;;;;;;;;;;;;5062072;28;1173;-76
2022/09/29 15:18:02;;;;;;;;;;;;;;;;;;5061015;28;1650;-78
2022/09/29 15:20:30;;;;;;;;;;;;;;;;;;5063199;28;1283;-76
2022/09/29 15:23:11;;;;;;;;;;;;;;;;;;5060730;28;1530;-77
2022/09/29 15:25:39;;;;;;;;;;;;;;;;;;5066726;28;1749;-77
2022/09/29 15:28:09;;;;;;;;;;;;;;;;;;5063391;28;1433;-77
2022/09/29 15:30:35;;;;;;;;;;;;;;;;;;5062242;28;1487;-76
2022/09/29 15:33:17;;;;;;;;;;;;;;;;;;5058716;28;1922;-76
2022/09/29 15:35:44;;;;;;;;;;;;;;;;;;5052630;28;1192;-76
2022/09/29 15:38:27;;;;;;;;;;;;;;;;;;5066443;28;1403;-76
2022/09/29 15:40:54;;;;;;;;;;;;;;;;;;5047855;28;1414;-76
2022/09/29 15:43:21;;;;;;;;;;;;;;;;;;5061557;28;1523;-76
2022/09/29 15:45:52;;;;;;;;;;;;;;;;;;5061858;28;1169;-76
2022/09/29 15:48:18;;;;;;;;;;;;;;;;;;5069090;28;1060;-75
2022/09/29 15:50:44;;;;;;;;;;;;;;;;;;5057504;28;1470;-76
2022/09/29 15:53:11;;;;;;;;;;;;;;;;;;5060171;28;1915;-76
2022/09/29 15:55:38;;;;;;;;;;;;;;;;;;5068926;28;1064;-76
2022/09/29 15:58:09;;;;;;;;;;;;;;;;;;5067052;28;956;-76
2022/09/29 16:00:42;;;;;;;;;;;;;;;;;;5067724;28;1846;-76
2022/09/29 16:03:09;;;;;;;;;;;;;;;;;;5058550;28;1121;-76
2022/09/29 16:05:37;;;;;;;;;;;;;;;;;;5049455;28;1209;-76
2022/09/29 16:08:04;;;;;;;;;;;;;;;;;;5066731;28;1783;-76
2022/09/29 16:10:31;;;;;;;;;;;;;;;;;;5067991;28;1361;-75
2022/09/29 16:12:59;;;;;;;;;;;;;;;;;;5055206;28;1910;-76
2022/09/29 16:15:27;;;;;;;;;;;;;;;;;;5049917;28;1487;-76
2022/09/29 16:17:53;;;;;;;;;;;;;;;;;;5065883;28;1542;-76
2022/09/29 16:20:21;;;;;;;;;;;;;;;;;;5058693;28;1429;-76
2022/09/29 16:22:47;;;;;;;;;;;;;;;;;;5060706;28;1392;-76
2022/09/29 16:25:20;;;;;;;;;;;;;;;;;;5058689;28;1423;-76
2022/09/29 16:27:52;;;;;;;;;;;;;;;;;;5052172;28;1520;-76
2022/09/29 16:30:18;;;;;;;;;;;;;;;;;;5049885;28;1072;-76
2022/09/29 16:32:46;;;;;;;;;;;;;;;;;;5049550;28;1450;-75
2022/09/29 16:35:30;;;;;;;;;;;;;;;;;;5059876;28;1897;-76
2022/09/29 16:37:57;;;;;;;;;;;;;;;;;;5060258;28;1379;-76
2022/09/29 16:40:23;;;;;;;;;;;;;;;;;;5065439;28;1113;-76
2022/09/29 16:42:50;;;;;;;;;;;;;;;;;;5073254;28;1320;-76
2022/09/29 16:45:17;;;;;;;;;;;;;;;;;;5072009;28;1417;-76
2022/09/29 16:47:43;;;;;;;;;;;;;;;;;;5065354;28;1130;-76
2022/09/29 16:50:13;;;;;;;;;;;;;;;;;;5055136;28;1180;-76
2022/09/29 16:52:40;;;;;;;;;;;;;;;;;;5058118;28;1400;-76
2022/09/29 16:55:12;;;;;;;;;;;;;;;;;;5072292;28;1985;-76
2022/09/29 16:57:38;;;;;;;;;;;;;;;;;;5065151;28;1460;-76
2022/09/29 17:00:09;;;;;;;;;;;;;;;;;;5053589;28;1137;-76
2022/09/29 17:02:35;;;;;;;;;;;;;;;;;;5059979;28;1470;-76
2022/09/29 17:05:03;;;;;;;;;;;;;;;;;;5060124;28;1401;-75
2022/09/29 17:07:31;;;;;;;;;;;;;;;;;;5061587;28;1130;-76
2022/09/29 17:09:58;;;;;;;;;;;;;;;;;;5065050;28;1366;-76
2022/09/29 17:12:25;;;;;;;;;;;;;;;;;;5059836;28;1353;-75
2022/09/29 17:14:51;;;;;;;;;;;;;;;;;;5052995;28;1997;-75
2022/09/29 17:17:18;;;;;;;;;;;;;;;;;;5052577;28;1564;-76
2022/09/29 17:19:45;;;;;;;;;;;;;;;;;;5064791;28;1145;-76